Time;durP1;ratioP1;P1;durP2;ratioP2;P2;SDS_P1;SDS_P2;PMS_P1;PMS_P2;Temp;Humidity;BMP_temperature;BMP_pressure;BME280_temperature;BME280_humidity;BME280_pressure;Samples;Min_cycle;Max_cycle;Signal;HPM_P1;HPM_P2
2021/03/08 00:00:13;;;;;;;3.38;3.05;;;;;;;9.80;57.04;100962.41;4922595;28;126236;-60
2021/03/08 00:02:39;;;;;;;3.75;3.03;;;;;;;9.81;57.07;100964.03;4922362;28;97985;-62
2021/03/08 00:05:08;;;;;;;3.50;3.20;;;;;;;9.81;56.86;100957.84;4924660;28;98724;-60
2021/03/08 00:07:34;;;;;;;3.85;3.28;;;;;;;9.82;56.48;100962.16;4923484;28;98197;-61
2021/03/08 00:10:00;;;;;;;3.78;3.08;;;;;;;9.81;56.40;100960.53;4923189;28;128514;-60
2021/03/08 00:12:26;;;;;;;3.90;2.97;;;;;;;9.82;56.45;100964.84;4923178;28;115934;-60
2021/03/08 00:14:52;;;;;;;3.97;3.25;;;;;;;9.83;57.01;100955.72;4923852;28;121781;-62
2021/03/08 00:17:18;;;;;;;4.20;3.47;;;;;;;9.80;57.11;100967.81;4923619;28;128865;-62
2021/03/08 00:19:44;;;;;;;5.28;3.40;;;;;;;9.81;57.11;100965.91;4921914;28;126462;-60
2021/03/08 00:22:10;;;;;;;4.05;3.35;;;;;;;9.82;56.87;100972.91;4923639;28;116647;-61
2021/03/08 00:24:36;;;;;;;4.07;3.65;;;;;;;9.80;57.47;100973.19;4920927;28;125987;-60
2021/03/08 00:27:02;;;;;;;5.35;3.92;;;;;;;9.80;56.53;100969.69;4953753;28;127886;-62
2021/03/08 00:29:28;;;;;;;4.03;3.42;;;;;;;9.81;57.02;100977.50;4920486;28;127269;-62
2021/03/08 00:31:54;;;;;;;5.30;4.00;;;;;;;9.81;57.30;100974.00;4923634;28;104319;-61
2021/03/08 00:34:20;;;;;;;3.83;3.38;;;;;;;9.80;57.41;100973.19;4923621;28;98370;-61
2021/03/08 00:36:46;;;;;;;5.53;3.60;;;;;;;9.79;57.21;100976.13;4923090;28;125904;-61
2021/03/08 00:39:12;;;;;;;4.55;3.90;;;;;;;9.80;57.51;100980.44;4923298;28;125606;-60
2021/03/08 00:41:38;;;;;;;4.88;3.90;;;;;;;9.81;57.17;100976.69;4923131;28;118835;-61
2021/03/08 00:44:05;;;;;;;3.97;3.58;;;;;;;9.78;57.15;100975.28;4923743;28;98192;-61
2021/03/08 00:46:31;;;;;;;4.65;3.80;;;;;;;9.78;57.36;100975.28;4921403;28;124730;-61
2021/03/08 00:48:57;;;;;;;4.45;3.78;;;;;;;9.78;57.06;100971.78;4923581;28;97998;-60
2021/03/08 00:51:23;;;;;;;5.18;3.92;;;;;;;9.78;56.95;100977.19;4923916;28;117116;-62
2021/03/08 00:53:49;;;;;;;4.50;3.95;;;;;;;9.80;57.62;100978.56;4921701;28;128622;-61
2021/03/08 00:56:15;;;;;;;5.32;4.07;;;;;;;9.86;57.11;100976.75;4922664;28;128778;-62
2021/03/08 00:58:41;;;;;;;4.57;3.92;;;;;;;9.89;56.97;100973.56;4922815;28;126360;-61
2021/03/08 01:01:07;;;;;;;4.72;3.83;;;;;;;9.92;57.07;100972.25;4937756;28;99400;-62
2021/03/08 01:03:33;;;;;;;4.10;3.70;;;;;;;9.94;56.71;100970.94;4922370;28;118389;-61
2021/03/08 01:05:59;;;;;;;4.97;4.22;;;;;;;9.95;56.60;100959.09;4921125;28;128172;-62
2021/03/08 01:08:25;;;;;;;5.47;4.28;;;;;;;9.97;56.42;100961.53;4920564;28;106982;-61
2021/03/08 01:10:51;;;;;;;5.45;4.50;;;;;;;9.96;56.86;100960.72;4923292;28;117888;-61
2021/03/08 01:13:17;;;;;;;4.72;3.97;;;;;;;9.96;56.33;100960.72;4904579;28;115616;-62
2021/03/08 01:15:45;;;;;;;4.95;4.40;;;;;;;9.97;56.20;100956.97;4937560;28;120064;-61
2021/03/08 01:18:14;;;;;;;6.80;4.57;;;;;;;9.96;56.89;100960.72;4921526;28;98458;-62
2021/03/08 01:20:40;;;;;;;5.13;4.55;;;;;;;9.97;56.68;100967.72;4921525;28;98026;-61
2021/03/08 01:23:06;;;;;;;4.70;4.20;;;;;;;9.97;56.24;100961.53;4921587;28;128654;-61
2021/03/08 01:25:32;;;;;;;4.50;4.03;;;;;;;9.96;56.58;100955.34;4920387;28;127769;-62
2021/03/08 01:27:58;;;;;;;4.82;4.10;;;;;;;9.96;56.47;100960.72;4936721;28;117598;-62
2021/03/08 01:30:27;;;;;;;4.90;4.40;;;;;;;9.95;56.16;100951.03;4905022;28;119077;-62
2021/03/08 01:32:53;;;;;;;5.72;4.35;;;;;;;9.94;56.60;100951.25;4921802;28;119821;-62
2021/03/08 01:35:20;;;;;;;5.22;4.38;;;;;;;9.95;56.97;100947.53;4922230;28;127698;-61
2021/03/08 01:37:46;;;;;;;5.47;4.22;;;;;;;9.92;56.77;100948.81;4922513;28;122246;-61
2021/03/08 01:40:14;;;;;;;4.43;4.03;;;;;;;9.93;56.34;100947.75;4921041;28;116603;-62
2021/03/08 01:42:40;;;;;;;5.10;4.10;;;;;;;9.93;57.34;100944.25;4923001;28;98090;-62
2021/03/08 01:45:08;;;;;;;5.82;4.95;;;;;;;9.94;57.14;100940.47;4923092;28;98053;-62
2021/03/08 01:47:36;;;;;;;4.85;4.32;;;;;;;9.91;56.93;100941.81;4952295;28;123282;-60
2021/03/08 01:50:04;;;;;;;5.07;4.22;;;;;;;9.91;57.11;100941.00;4938406;28;97759;-61
2021/03/08 01:52:30;;;;;;;5.43;4.20;;;;;;;9.90;56.43;100933.97;4922419;28;98374;-61
2021/03/08 01:54:56;;;;;;;5.10;4.53;;;;;;;9.87;56.89;100934.50;4920135;28;128671;-62
2021/03/08 01:57:22;;;;;;;5.07;4.57;;;;;;;9.88;56.66;100941.50;4903302;28;128042;-62
2021/03/08 01:59:48;;;;;;;4.68;4.22;;;;;;;9.87;56.84;100939.88;4919776;28;117831;-62
2021/03/08 02:02:16;;;;;;;5.63;4.35;;;;;;;9.87;57.41;100950.66;4921819;28;127580;-62
2021/03/08 02:04:42;;;;;;;5.75;4.70;;;;;;;9.84;56.52;100950.06;4922126;28;98569;-62
2021/03/08 02:07:09;;;;;;;5.65;4.65;;;;;;;9.83;57.14;100945.75;4922914;28;105316;-61
2021/03/08 02:09:35;;;;;;;5.00;4.50;;;;;;;9.82;57.10;100940.63;4922632;28;117099;-62
2021/03/08 02:12:37;;;;;;;4.90;4.30;;;;;;;9.81;57.28;100941.69;4921207;28;127542;-61
2021/03/08 02:15:22;;;;;;;4.85;4.30;;;;;;;9.79;57.42;100947.34;4920919;28;104786;-60
2021/03/08 02:18:15;;;;;;;4.90;4.40;;;;;;;9.78;57.17;100939.50;4921775;28;97995;-60
2021/03/08 02:21:00;;;;;;;5.78;5.00;;;;;;;9.78;57.20;100939.50;4908285;28;97841;-62
2021/03/08 02:23:51;;;;;;;5.45;4.72;;;;;;;9.77;57.55;100940.56;4919155;28;123254;-62
2021/03/08 02:26:53;;;;;;;6.30;5.13;;;;;;;9.76;57.87;100947.81;4920751;28;98390;-61
2021/03/08 02:29:50;;;;;;;6.20;4.77;;;;;;;9.75;57.22;100946.22;4883032;28;111758;-62
2021/03/08 02:32:20;;;;;;;6.13;4.95;;;;;;;9.76;57.23;100953.22;4922219;28;97875;-61
2021/03/08 02:35:14;;;;;;;5.10;4.53;;;;;;;9.74;57.21;100947.25;4920749;28;98935;-61
2021/03/08 02:37:59;;;;;;;5.35;4.53;;;;;;;9.76;57.01;100952.41;4912115;28;98641;-61
2021/03/08 02:40:49;;;;;;;4.88;4.38;;;;;;;9.75;57.38;100950.78;4906527;28;121955;-61
2021/03/08 02:43:31;;;;;;;5.93;4.63;;;;;;;9.74;57.43;100955.31;4918108;28;98370;-62
2021/03/08 02:45:59;;;;;;;5.30;4.80;;;;;;;9.75;57.50;100962.34;4920924;28;98115;-61
2021/03/08 02:48:26;;;;;;;6.07;4.72;;;;;;;9.75;57.23;100965.06;4903507;28;111848;-60
2021/03/08 02:50:53;;;;;;;5.80;4.88;;;;;;;9.74;57.96;100958.00;4920058;28;126039;-61
2021/03/08 02:53:19;;;;;;;5.07;4.57;;;;;;;9.72;57.29;100962.84;4904787;28;98519;-62
2021/03/08 02:55:53;;;;;;;5.28;4.70;;;;;;;9.74;57.64;100963.41;4903380;28;128845;-62
2021/03/08 02:58:19;;;;;;;6.25;4.78;;;;;;;9.74;57.81;100955.31;4903145;28;121547;-61
2021/03/08 03:00:47;;;;;;;6.28;4.88;;;;;;;9.73;57.89;100956.41;4887170;28;126964;-63
2021/03/08 03:03:13;;;;;;;5.63;4.75;;;;;;;9.74;58.17;100957.22;4920126;28;97951;-62
2021/03/08 03:05:40;;;;;;;6.00;5.03;;;;;;;9.75;57.46;100956.16;4887507;28;126548;-60
2021/03/08 03:08:07;;;;;;;5.60;5.00;;;;;;;9.73;57.21;100959.09;4886784;28;99151;-62
2021/03/08 03:10:34;;;;;;;6.20;4.78;;;;;;;9.75;57.80;100950.78;4935756;28;122450;-62
2021/03/08 03:13:00;;;;;;;6.05;4.72;;;;;;;9.75;57.59;100964.25;4919539;28;113310;-61
2021/03/08 03:15:26;;;;;;;5.75;4.80;;;;;;;9.76;57.71;100961.28;4918876;28;127959;-61
2021/03/08 03:17:53;;;;;;;5.78;4.43;;;;;;;9.77;57.57;100962.09;4919477;28;98726;-60
2021/03/08 03:20:19;;;;;;;6.25;5.30;;;;;;;9.77;57.46;100964.78;4903368;28;123902;-62
2021/03/08 03:22:46;;;;;;;6.25;5.10;;;;;;;9.76;57.79;100966.66;4935979;28;98079;-62
2021/03/08 03:25:17;;;;;;;5.68;4.93;;;;;;;9.75;57.65;100967.75;4922127;28;98004;-61
2021/03/08 03:27:44;;;;;;;5.85;5.25;;;;;;;9.76;57.43;100966.66;4919607;28;98775;-60
2021/03/08 03:30:11;;;;;;;5.57;4.85;;;;;;;9.78;57.56;100963.72;4920494;28;98172;-61
2021/03/08 03:32:37;;;;;;;5.80;4.90;;;;;;;9.76;57.60;100973.94;4919618;28;106869;-61
2021/03/08 03:35:04;;;;;;;5.82;5.15;;;;;;;9.76;57.38;100968.56;4918901;28;119578;-60
2021/03/08 03:37:30;;;;;;;6.75;5.40;;;;;;;9.77;57.22;100970.19;4938637;28;110497;-62
2021/03/08 03:39:56;;;;;;;5.80;5.18;;;;;;;9.77;57.86;100975.56;4890551;28;99752;-61
2021/03/08 03:42:22;;;;;;;7.00;5.05;;;;;;;9.75;58.10;100969.63;4922263;28;116088;-61
2021/03/08 03:44:48;;;;;;;6.80;5.40;;;;;;;9.74;57.84;100970.66;4924170;28;127894;-62
2021/03/08 03:47:16;;;;;;;7.28;5.30;;;;;;;9.75;58.02;100973.13;4924005;28;113345;-61
2021/03/08 03:49:42;;;;;;;6.53;5.25;;;;;;;9.75;58.23;100973.13;4925070;28;104090;-62
2021/03/08 03:52:08;;;;;;;6.10;5.28;;;;;;;9.78;57.40;100979.88;4923491;28;118039;-63
2021/03/08 03:54:34;;;;;;;6.22;5.25;;;;;;;9.75;57.97;100978.50;4924217;28;108157;-61
2021/03/08 03:57:05;;;;;;;6.40;5.40;;;;;;;9.76;57.91;100982.81;4954536;28;128308;-62
2021/03/08 03:59:49;;;;;;;5.90;5.30;;;;;;;9.76;57.65;100982.81;4922491;28;98285;-61
2021/03/08 04:02:24;;;;;;;6.35;5.35;;;;;;;9.75;58.05;100986.59;4906835;28;98022;-61
2021/03/08 04:04:52;;;;;;;6.25;5.28;;;;;;;9.75;57.44;100999.25;4923974;28;99275;-62
2021/03/08 04:07:19;;;;;;;7.40;5.65;;;;;;;9.75;58.18;100994.66;4920982;28;123987;-61
2021/03/08 04:09:52;;;;;;;7.43;5.45;;;;;;;9.74;57.70;101005.66;4923757;28;119467;-62
2021/03/08 04:12:23;;;;;;;6.60;5.40;;;;;;;9.76;57.97;101003.56;4923635;28;114197;-61
2021/03/08 04:14:51;;;;;;;6.55;5.85;;;;;;;9.75;57.93;101008.13;4943349;28;98554;-62
2021/03/08 04:17:17;;;;;;;7.18;5.63;;;;;;;9.76;57.81;101007.06;4905509;28;125736;-62
2021/03/08 04:19:44;;;;;;;6.63;5.40;;;;;;;9.76;57.58;101011.63;4921781;28;125485;-62
2021/03/08 04:22:10;;;;;;;7.35;5.53;;;;;;;9.73;58.26;101012.13;4922113;28;97826;-62
2021/03/08 04:24:38;;;;;;;7.13;5.95;;;;;;;9.73;58.02;101012.13;4921631;28;127933;-62
2021/03/08 04:27:06;;;;;;;6.70;5.78;;;;;;;9.71;58.11;101019.66;4938827;28;97905;-62
2021/03/08 04:29:39;;;;;;;8.27;6.03;;;;;;;9.70;58.91;101020.69;4925031;28;97881;-61
2021/03/08 04:32:07;;;;;;;7.85;6.20;;;;;;;9.70;58.88;101028.75;4938320;28;97880;-61
2021/03/08 04:34:33;;;;;;;7.72;6.07;;;;;;;9.72;58.79;101034.72;4902989;28;104702;-62
2021/03/08 04:36:59;;;;;;;7.35;6.20;;;;;;;9.70;58.52;101024.19;4925079;28;128612;-61
2021/03/08 04:39:27;;;;;;;8.30;6.25;;;;;;;9.68;58.74;101025.53;4954401;28;98299;-61
2021/03/08 04:41:53;;;;;;;8.18;6.53;;;;;;;9.70;58.23;101034.16;4938717;28;97909;-62
2021/03/08 04:44:19;;;;;;;9.27;6.22;;;;;;;9.68;58.74;101034.41;4921166;28;126986;-62
2021/03/08 04:46:45;;;;;;;7.45;6.10;;;;;;;9.67;58.88;101030.09;4936137;28;127384;-62
2021/03/08 04:49:12;;;;;;;8.63;6.20;;;;;;;9.66;58.72;101028.44;4954284;28;97970;-62
2021/03/08 04:51:38;;;;;;;8.27;6.22;;;;;;;9.68;58.79;101030.91;4922405;28;98087;-62
2021/03/08 04:54:04;;;;;;;8.40;6.65;;;;;;;9.67;58.49;101027.41;4923647;28;108584;-62
2021/03/08 04:56:34;;;;;;;8.93;6.82;;;;;;;9.65;58.60;101034.09;4921784;28;98658;-61
2021/03/08 04:59:01;;;;;;;9.18;6.93;;;;;;;9.67;58.76;101034.63;4923395;28;98508;-62
2021/03/08 05:01:30;;;;;;;10.10;6.82;;;;;;;9.67;58.71;101042.72;4889143;28;98038;-61
2021/03/08 05:03:56;;;;;;;8.93;6.72;;;;;;;9.67;58.64;101051.63;4922036;28;98849;-61
2021/03/08 05:06:22;;;;;;;9.68;6.95;;;;;;;9.67;58.50;101051.63;4904748;28;128119;-61
2021/03/08 05:08:48;;;;;;;8.70;7.05;;;;;;;9.67;58.84;101056.16;4937606;28;107018;-62
2021/03/08 05:11:14;;;;;;;7.85;6.63;;;;;;;9.68;58.97;101060.50;4904111;28;116802;-61
2021/03/08 05:13:40;;;;;;;11.48;6.93;;;;;;;9.66;58.76;101058.06;4904062;28;112179;-61
2021/03/08 05:16:07;;;;;;;9.65;7.35;;;;;;;9.66;59.07;101054.53;4920675;28;129581;-62
2021/03/08 05:18:33;;;;;;;8.90;7.40;;;;;;;9.67;58.84;101059.69;4904303;28;126711;-62
2021/03/08 05:20:59;;;;;;;11.10;7.47;;;;;;;9.67;58.59;101059.69;4920907;28;116482;-62
2021/03/08 05:23:25;;;;;;;9.82;7.28;;;;;;;9.65;58.51;101061.00;4936894;28;128102;-62
2021/03/08 05:25:52;;;;;;;9.07;6.90;;;;;;;9.66;58.62;101062.63;4920158;28;125968;-61
2021/03/08 05:28:18;;;;;;;11.45;8.18;;;;;;;9.66;58.58;101068.81;4936572;28;127347;-62
2021/03/08 05:30:44;;;;;;;11.23;7.75;;;;;;;9.66;58.70;101073.38;4890126;28;97825;-62
2021/03/08 05:33:21;;;;;;;10.55;7.70;;;;;;;9.66;58.79;101068.00;4920803;28;108358;-61
2021/03/08 05:35:54;;;;;;;11.10;8.32;;;;;;;9.66;58.72;101076.91;4905650;28;98161;-61
2021/03/08 05:38:26;;;;;;;9.77;7.53;;;;;;;9.67;58.67;101080.41;4920666;28;108891;-61
2021/03/08 05:41:29;;;;;;;9.18;7.13;;;;;;;9.66;58.40;101084.97;4922473;28;97955;-61
2021/03/08 05:43:57;;;;;;;9.48;7.30;;;;;;;9.67;58.69;101083.94;4921581;28;98212;-62
2021/03/08 05:46:44;;;;;;;10.15;8.10;;;;;;;9.68;58.91;101084.75;4901943;28;123135;-62
2021/03/08 05:49:38;;;;;;;10.48;7.50;;;;;;;9.73;58.92;101084.81;4904024;28;98322;-61
2021/03/08 05:52:51;;;;;;;14.82;7.97;;;;;;;9.65;58.64;101083.34;4917754;28;98264;-62
2021/03/08 05:55:27;;;;;;;12.93;8.53;;;;;;;9.64;59.24;101097.06;4919440;28;98098;-61
2021/03/08 05:58:09;;;;;;;14.43;8.25;;;;;;;9.56;58.83;101092.91;4918711;28;98422;-61
2021/03/08 06:01:32;;;;;;;10.27;7.78;;;;;;;9.53;59.04;101099.59;4919095;28;116056;-61
2021/03/08 06:04:27;;;;;;;10.07;8.10;;;;;;;9.52;59.34;101102.53;4919499;28;98255;-61
2021/03/08 06:07:31;;;;;;;11.90;8.63;;;;;;;9.51;59.31;101114.34;4916771;28;99054;-61
2021/03/08 06:10:03;;;;;;;10.82;8.57;;;;;;;9.47;59.89;101113.19;4920108;28;99300;-61
2021/03/08 06:12:35;;;;;;;11.98;8.95;;;;;;;9.45;59.60;101110.75;4922063;28;97822;-63
2021/03/08 06:15:06;;;;;;;11.38;8.55;;;;;;;9.50;59.61;101107.31;4922399;28;97904;-61
2021/03/08 06:17:32;;;;;;;12.32;9.32;;;;;;;9.50;59.56;101112.72;4920719;28;98021;-61
2021/03/08 06:19:58;;;;;;;12.40;8.98;;;;;;;9.53;59.59;101123.00;4902997;28;127558;-61
2021/03/08 06:22:24;;;;;;;11.23;9.32;;;;;;;9.54;59.74;101125.44;4886527;28;117006;-61
2021/03/08 06:24:50;;;;;;;12.13;9.30;;;;;;;9.59;59.69;101125.53;4902731;28;117045;-62
2021/03/08 06:27:16;;;;;;;11.98;8.82;;;;;;;9.58;59.72;101134.66;4902894;28;125861;-61
2021/03/08 06:29:43;;;;;;;12.68;9.75;;;;;;;9.65;59.92;101131.00;4919283;28;98614;-62
2021/03/08 06:32:10;;;;;;;13.95;9.65;;;;;;;9.69;60.17;101132.94;4921728;28;97969;-62
2021/03/08 06:34:37;;;;;;;12.13;9.68;;;;;;;9.64;59.67;101142.81;4921940;28;98012;-61
2021/03/08 06:37:05;;;;;;;12.55;9.65;;;;;;;9.75;59.53;101150.00;4902517;28;113610;-62
2021/03/08 06:39:40;;;;;;;11.07;8.93;;;;;;;9.77;59.90;101153.25;4921073;28;99286;-62
2021/03/08 06:42:07;;;;;;;10.15;9.05;;;;;;;9.92;59.90;101155.38;4922810;28;98036;-62
2021/03/08 06:44:34;;;;;;;13.27;10.05;;;;;;;9.94;59.87;101156.78;4922105;28;97657;-61
2021/03/08 06:47:00;;;;;;;11.35;9.48;;;;;;;9.97;59.50;101158.94;4919947;28;98743;-62
2021/03/08 06:49:26;;;;;;;12.07;9.02;;;;;;;9.99;59.54;101172.19;4903455;28;98929;-61
2021/03/08 06:52:10;;;;;;;12.65;9.77;;;;;;;10.01;60.14;101165.47;4922224;28;98041;-61
2021/03/08 06:54:41;;;;;;;12.80;9.48;;;;;;;9.95;59.86;101163.78;4921457;28;112727;-61
2021/03/08 06:57:25;;;;;;;12.32;9.40;;;;;;;9.84;60.30;101172.75;4921264;28;98546;-61
2021/03/08 06:59:55;;;;;;;12.18;9.68;;;;;;;9.86;60.44;101177.91;4920007;28;98270;-61
2021/03/08 07:02:23;;;;;;;11.25;8.93;;;;;;;9.87;59.78;101179.56;4921105;28;98160;-61
2021/03/08 07:04:49;;;;;;;12.27;9.07;;;;;;;9.79;60.85;101183.47;4919604;28;97808;-61
2021/03/08 07:07:15;;;;;;;10.68;9.05;;;;;;;9.78;61.10;101182.63;4919259;28;98063;-62
2021/03/08 07:09:51;;;;;;;11.27;9.32;;;;;;;9.72;61.44;101188.19;4919250;28;128036;-62
2021/03/08 07:12:18;;;;;;;10.68;8.73;;;;;;;9.74;61.08;101189.56;4923774;28;125759;-62
2021/03/08 07:14:44;;;;;;;11.43;8.57;;;;;;;9.78;61.02;101192.56;4925770;28;97698;-62
2021/03/08 07:17:36;;;;;;;11.35;8.77;;;;;;;9.80;60.80;101198.56;4921935;28;97992;-62
2021/03/08 07:20:08;;;;;;;11.05;8.40;;;;;;;9.82;61.00;101202.63;4924411;28;98612;-60
2021/03/08 07:22:49;;;;;;;11.75;8.50;;;;;;;9.81;60.82;101203.69;4923877;28;98222;-61
2021/03/08 07:25:22;;;;;;;10.32;8.20;;;;;;;9.81;60.60;101205.56;4925946;28;97867;-61
2021/03/08 07:27:54;;;;;;;9.57;8.25;;;;;;;9.89;61.15;101218.63;4924238;28;98204;-62
2021/03/08 07:30:31;;;;;;;10.50;8.60;;;;;;;10.20;60.68;101211.84;4925180;28;98466;-62
2021/03/08 07:33:03;;;;;;;10.00;8.38;;;;;;;10.27;59.06;101222.47;4923638;28;113960;-62
2021/03/08 07:35:33;;;;;;;9.68;8.55;;;;;;;10.29;59.22;101220.34;4924562;28;97922;-61
2021/03/08 07:37:59;;;;;;;10.77;8.68;;;;;;;10.38;58.71;101218.06;4924207;28;99302;-62
2021/03/08 07:40:25;;;;;;;9.73;8.13;;;;;;;10.50;58.95;101222.28;4923912;28;116100;-61
2021/03/08 07:42:52;;;;;;;9.95;8.13;;;;;;;10.67;58.38;101230.31;4922879;28;128482;-61
2021/03/08 07:45:19;;;;;;;9.15;8.02;;;;;;;10.69;58.74;101230.91;4906152;28;117505;-62
2021/03/08 07:47:46;;;;;;;9.65;8.02;;;;;;;10.72;58.63;101238.47;4923465;28;99975;-61
2021/03/08 07:50:29;;;;;;;9.23;7.78;;;;;;;10.81;58.75;101238.88;4922562;28;98598;-62
2021/03/08 07:52:56;;;;;;;9.07;7.85;;;;;;;10.78;59.33;101242.88;4923964;28;97904;-61
2021/03/08 07:55:34;;;;;;;10.35;7.85;;;;;;;10.67;59.73;101238.41;4906119;28;97884;-63
2021/03/08 07:58:02;;;;;;;9.98;7.82;;;;;;;10.62;59.65;101246.44;4906779;28;98182;-62
2021/03/08 08:00:30;;;;;;;9.52;7.97;;;;;;;10.84;59.07;101245.63;4925046;28;105185;-62
2021/03/08 08:02:57;;;;;;;10.30;7.57;;;;;;;11.25;57.79;101252.34;4924035;28;98336;-62
2021/03/08 08:05:23;;;;;;;10.15;7.85;;;;;;;11.09;58.04;101251.34;4924833;28;97895;-61
2021/03/08 08:07:50;;;;;;;9.85;7.68;;;;;;;11.26;58.10;101253.97;4905388;28;99432;-62
2021/03/08 08:10:17;;;;;;;9.07;7.72;;;;;;;12.02;56.04;101253.94;4921430;28;114344;-61
2021/03/08 08:12:44;;;;;;;9.52;7.55;;;;;;;13.03;53.27;101242.09;4954223;28;116335;-62
2021/03/08 08:15:11;;;;;;;8.57;6.85;;;;;;;13.37;53.28;101237.13;4921880;28;98296;-63
2021/03/08 08:17:37;;;;;;;9.80;7.45;;;;;;;13.12;54.05;101245.94;4938043;28;115537;-62
2021/03/08 08:20:08;;;;;;;8.02;7.00;;;;;;;15.11;49.33;101231.50;4937527;28;126595;-63
2021/03/08 08:22:35;;;;;;;8.30;6.80;;;;;;;16.57;45.96;101224.41;4904775;28;98113;-61
2021/03/08 08:25:05;;;;;;;6.78;6.13;;;;;;;16.84;45.62;101218.41;4923847;28;98427;-63
2021/03/08 08:27:32;;;;;;;7.07;6.05;;;;;;;17.18;45.59;101218.25;4954527;28;97972;-62
2021/03/08 08:30:01;;;;;;;6.82;6.10;;;;;;;19.05;41.98;101209.00;4921066;28;124119;-64
2021/03/08 08:32:45;;;;;;;6.07;5.15;;;;;;;19.71;41.02;101212.19;4922901;28;113023;-63
2021/03/08 08:35:20;;;;;;;5.82;5.30;;;;;;;17.57;46.27;101231.56;4922079;28;98205;-63
2021/03/08 08:38:14;;;;;;;5.65;5.13;;;;;;;16.81;48.29;101238.84;4922599;28;98484;-62
2021/03/08 08:40:42;;;;;;;5.50;5.00;;;;;;;18.45;44.22;101229.03;4903822;28;99115;-62
2021/03/08 08:43:14;;;;;;;5.50;5.00;;;;;;;21.73;38.20;101217.72;4904040;28;97927;-62
2021/03/08 08:45:43;;;;;;;5.00;4.50;;;;;;;23.95;34.78;101215.56;4904205;28;97873;-62
2021/03/08 08:48:10;;;;;;;4.43;4.03;;;;;;;25.57;32.73;101233.34;4902667;28;97960;-63
2021/03/08 08:50:43;;;;;;;4.28;3.35;;;;;;;26.95;31.45;101240.91;4903671;28;99122;-65
2021/03/08 08:53:10;;;;;;;3.80;3.00;;;;;;;27.66;30.90;101247.97;4917839;28;99165;-60
2021/03/08 08:55:36;;;;;;;4.15;2.70;;;;;;;28.69;29.87;101261.34;4923116;28;97815;-62
2021/03/08 08:58:21;;;;;;;2.90;2.60;;;;;;;29.69;28.79;101260.84;4922746;28;98872;-61
2021/03/08 09:01:25;;;;;;;2.38;2.03;;;;;;;30.55;28.13;101259.75;4922977;28;99345;-62
2021/03/08 09:04:01;;;;;;;2.97;2.10;;;;;;;30.71;27.76;101265.03;4922349;28;98041;-61
2021/03/08 09:06:47;;;;;;;1.83;1.58;;;;;;;31.17;26.93;101263.78;4923215;28;98050;-61
2021/03/08 09:09:22;;;;;;;2.10;1.38;;;;;;;31.37;27.04;101262.31;4922091;28;99138;-61
2021/03/08 09:12:02;;;;;;;2.53;1.60;;;;;;;29.91;28.13;101267.44;4922615;28;98689;-62
2021/03/08 09:14:37;;;;;;;1.90;1.40;;;;;;;31.45;26.65;101255.59;4923436;28;97959;-61
2021/03/08 09:17:44;;;;;;;1.92;0.90;;;;;;;27.74;30.87;101268.34;4923022;28;97968;-60
2021/03/08 09:20:13;;;;;;;2.03;1.40;;;;;;;24.71;34.59;101274.81;4880724;28;98514;-60
2021/03/08 09:22:52;;;;;;;2.15;1.10;;;;;;;27.00;31.75;101251.69;4906732;28;98482;-62
2021/03/08 09:25:40;;;;;;;2.08;1.20;;;;;;;24.95;34.57;101261.00;4951957;28;97882;-60
2021/03/08 09:28:09;;;;;;;2.17;1.20;;;;;;;23.15;37.49;101276.22;4920610;28;117751;-61
2021/03/08 09:30:46;;;;;;;2.10;1.10;;;;;;;25.11;34.64;101258.41;4953828;28;98561;-60
2021/03/08 09:33:19;;;;;;;1.45;0.90;;;;;;;22.62;38.11;101263.84;4953254;28;99696;-59
2021/03/08 09:35:50;;;;;;;2.10;1.10;;;;;;;21.18;40.83;101278.63;4937186;28;98484;-59
2021/03/08 09:38:21;;;;;;;2.25;1.02;;;;;;;20.20;42.47;101276.06;4923519;28;98164;-61
2021/03/08 09:41:00;;;;;;;2.42;1.15;;;;;;;19.53;44.11;101282.28;4921779;28;124282;-59
2021/03/08 09:43:38;;;;;;;2.00;1.30;;;;;;;19.24;44.47;101279.91;4921118;28;112457;-61
2021/03/08 09:46:11;;;;;;;1.58;1.27;;;;;;;22.89;37.38;101260.66;4922475;28;98447;-62
2021/03/08 09:48:39;;;;;;;2.13;1.05;;;;;;;21.25;40.53;101267.97;4922522;28;97829;-61
2021/03/08 09:51:14;;;;;;;1.88;1.20;;;;;;;19.63;43.17;101284.81;4922823;28;98307;-61
2021/03/08 09:53:43;;;;;;;1.67;1.20;;;;;;;18.88;45.24;101283.38;4953101;28;98160;-60
2021/03/08 09:56:14;;;;;;;1.85;1.10;;;;;;;23.56;35.98;101258.94;4921820;28;98242;-62
2021/03/08 09:58:41;;;;;;;2.80;1.00;;;;;;;24.77;35.50;101270.69;4922382;28;98850;-62
2021/03/08 10:01:20;;;;;;;1.83;0.60;;;;;;;25.53;34.69;101271.06;4922479;28;99153;-64
2021/03/08 10:03:46;;;;;;;2.25;0.77;;;;;;;23.88;37.19;101273.91;4954047;28;98510;-64
2021/03/08 10:06:40;;;;;;;1.85;0.68;;;;;;;25.81;35.33;101268.34;4903934;28;102446;-64
2021/03/08 10:09:20;;;;;;;1.13;0.50;;;;;;;26.64;33.83;101261.88;4921185;28;113877;-64
2021/03/08 10:11:46;;;;;;;1.58;0.32;;;;;;;28.54;31.62;101266.69;4922107;28;98090;-64
2021/03/08 10:14:26;;;;;;;1.25;0.50;;;;;;;26.87;34.32;101288.91;4920233;28;98891;-62
2021/03/08 10:17:09;;;;;;;1.00;0.40;;;;;;;25.45;35.53;101284.66;4922574;28;98156;-64
2021/03/08 10:19:35;;;;;;;1.17;0.50;;;;;;;23.23;38.28;101292.66;4920635;28;97667;-62
2021/03/08 10:22:02;;;;;;;1.00;0.40;;;;;;;24.56;37.54;101281.78;4920020;28;98563;-64
2021/03/08 10:24:35;;;;;;;0.80;0.30;;;;;;;25.83;35.90;101272.38;4922325;28;98670;-62
2021/03/08 10:27:01;;;;;;;1.20;0.40;;;;;;;25.61;36.56;101279.19;4920698;28;98031;-62
2021/03/08 10:29:27;;;;;;;1.05;0.30;;;;;;;26.62;35.33;101282.78;4920478;28;97998;-63
2021/03/08 10:31:54;;;;;;;1.20;0.30;;;;;;;26.85;35.72;101274.66;4919828;28;99886;-64
2021/03/08 10:34:20;;;;;;;0.90;0.30;;;;;;;27.72;34.33;101276.19;4919401;28;98490;-62
2021/03/08 10:36:46;;;;;;;0.88;0.28;;;;;;;28.17;34.06;101276.69;4902827;28;126609;-64
2021/03/08 10:39:12;;;;;;;1.20;0.22;;;;;;;27.03;35.72;101277.81;4903481;28;97977;-64
2021/03/08 10:41:41;;;;;;;1.27;0.30;;;;;;;27.24;34.87;101286.66;4919541;28;98853;-62
2021/03/08 10:44:07;;;;;;;0.60;0.20;;;;;;;27.74;34.37;101270.31;4904295;28;119825;-64
2021/03/08 10:46:39;;;;;;;0.82;0.20;;;;;;;26.60;35.11;101277.59;4923478;28;98103;-64
2021/03/08 10:49:06;;;;;;;1.50;0.30;;;;;;;26.42;35.42;101282.66;4926033;28;99014;-65
2021/03/08 10:51:33;;;;;;;0.88;0.20;;;;;;;26.98;35.12;101275.34;4925117;28;97804;-63
2021/03/08 10:54:09;;;;;;;0.82;0.20;;;;;;;27.59;35.17;101272.78;4925335;28;98198;-64
2021/03/08 10:56:38;;;;;;;1.10;0.20;;;;;;;28.14;34.11;101269.94;4925461;28;98691;-62
2021/03/08 10:59:29;;;;;;;0.85;0.20;;;;;;;28.71;33.61;101273.69;4923845;28;98030;-64
2021/03/08 11:02:05;;;;;;;0.70;0.20;;;;;;;28.59;33.92;101271.91;4923466;28;98606;-64
2021/03/08 11:04:31;;;;;;;1.00;0.20;;;;;;;28.99;33.08;101267.81;4925040;28;99041;-63
2021/03/08 11:06:58;;;;;;;0.50;0.10;;;;;;;29.28;32.76;101268.25;4924615;28;98601;-63
2021/03/08 11:09:36;;;;;;;0.63;0.10;;;;;;;29.71;32.56;101263.22;4925264;28;97705;-63
2021/03/08 11:12:03;;;;;;;0.75;0.20;;;;;;;29.98;31.65;101267.50;4924476;28;98887;-63
2021/03/08 11:14:30;;;;;;;1.00;0.20;;;;;;;30.38;31.33;101270.69;4924604;28;98661;-64
2021/03/08 11:16:57;;;;;;;1.00;0.20;;;;;;;30.66;30.94;101265.41;4955778;28;97919;-65
2021/03/08 11:19:26;;;;;;;1.10;0.20;;;;;;;30.87;30.40;101267.56;4939400;28;98033;-63
2021/03/08 11:22:27;;;;;;;0.50;0.17;;;;;;;31.13;30.25;101260.97;4924975;28;98343;-65
2021/03/08 11:24:53;;;;;;;0.45;0.10;;;;;;;31.35;29.57;101259.09;4921933;28;127517;-63
2021/03/08 11:27:29;;;;;;;1.08;0.20;;;;;;;31.37;29.43;101261.53;4924313;28;97801;-65
2021/03/08 11:30:07;;;;;;;0.68;0.20;;;;;;;31.42;29.53;101267.50;4925432;28;97809;-62
2021/03/08 11:32:34;;;;;;;0.50;0.10;;;;;;;31.42;29.14;101261.13;4924706;28;98469;-63
2021/03/08 11:35:00;;;;;;;0.90;0.20;;;;;;;31.58;28.70;101261.59;4923581;28;109129;-63
2021/03/08 11:37:28;;;;;;;0.77;0.20;;;;;;;31.69;28.33;101264.44;4923711;28;127366;-63
2021/03/08 11:40:02;;;;;;;0.50;0.15;;;;;;;31.61;28.40;101257.25;4923438;28;97976;-65
2021/03/08 11:42:29;;;;;;;0.73;0.20;;;;;;;31.75;27.98;101255.31;4921728;28;111230;-63